Time;durP1;ratioP1;P1;durP2;ratioP2;P2;SDS_P1;SDS_P2;PMS_P1;PMS_P2;Temp;Humidity;BMP_temperature;BMP_pressure;BME280_temperature;BME280_humidity;BME280_pressure;Samples;Min_cycle;Max_cycle;Signal;HPM_P1;HPM_P2
2021/12/23 00:00:14;;;;;;;25.65;12.88;;;;;;;;;;5051731;28;20025;-36
2021/12/23 00:02:40;;;;;;;21.98;10.88;;;;;;;;;;5051876;28;20031;-35
2021/12/23 00:05:08;;;;;;;26.27;11.95;;;;;;;;;;5051604;28;20483;-35
2021/12/23 00:07:34;;;;;;;24.52;12.52;;;;;;;;;;5051511;28;20025;-35
2021/12/23 00:10:06;;;;;;;28.13;12.13;;;;;;;;;;5051856;28;20021;-36
2021/12/23 00:12:35;;;;;;;21.33;11.15;;;;;;;;;;5051374;28;20057;-36
2021/12/23 00:15:02;;;;;;;24.05;11.57;;;;;;;;;;5051287;28;20413;-36
2021/12/23 00:17:54;;;;;;;22.35;11.35;;;;;;;;;;5051868;28;20407;-36
2021/12/23 00:25:23;;;;;;;26.52;11.43;;;;;;;;;;5051597;28;20040;-36
2021/12/23 00:27:48;;;;;;;25.40;10.68;;;;;;;;;;5051443;28;20032;-35
2021/12/23 00:30:14;;;;;;;22.52;8.20;;;;;;;;;;5051173;28;20021;-36
2021/12/23 00:32:40;;;;;;;20.67;10.68;;;;;;;;;;5050880;28;20124;-35
2021/12/23 00:35:06;;;;;;;29.02;11.45;;;;;;;;;;5051547;28;20017;-35
2021/12/23 00:37:38;;;;;;;25.38;11.30;;;;;;;;;;5051430;28;20021;-35
2021/12/23 00:40:05;;;;;;;17.02;7.47;;;;;;;;;;5051331;28;20036;-35
2021/12/23 00:42:32;;;;;;;24.60;11.50;;;;;;;;;;5051437;28;20028;-36
2021/12/23 00:44:58;;;;;;;28.23;10.23;;;;;;;;;;5051481;28;20063;-36
2021/12/23 00:47:23;;;;;;;24.38;11.98;;;;;;;;;;5051059;28;20433;-36
2021/12/23 00:49:49;;;;;;;29.63;12.98;;;;;;;;;;5051197;28;20147;-36
2021/12/23 00:52:17;;;;;;;25.35;13.00;;;;;;;;;;5051375;28;20061;-35
2021/12/23 00:54:43;;;;;;;28.67;12.55;;;;;;;;;;5051307;28;20036;-37
2021/12/23 00:57:09;;;;;;;28.02;13.70;;;;;;;;;;5051495;28;20067;-36
2021/12/23 00:59:37;;;;;;;28.08;11.13;;;;;;;;;;5051349;28;20115;-36
2021/12/23 01:02:06;;;;;;;28.00;11.48;;;;;;;;;;5051246;28;20519;-36
2021/12/23 01:04:32;;;;;;;28.98;12.48;;;;;;;;;;5051164;28;20029;-36
2021/12/23 01:06:58;;;;;;;24.73;11.60;;;;;;;;;;5050972;28;20036;-36
2021/12/23 01:09:23;;;;;;;29.55;12.05;;;;;;;;;;5051485;28;20059;-35
2021/12/23 01:11:50;;;;;;;20.00;10.27;;;;;;;;;;5051320;28;20511;-36
2021/12/23 01:17:29;;;;;;;26.75;11.45;;;;;;;;;;5051075;28;20021;-36
2021/12/23 01:19:40;;;;;;;18.95;9.65;;;;;;;;;;5047016;28;20106;-35
2021/12/23 01:22:07;;;;;;;22.70;10.50;;;;;;;;;;5051331;28;20496;-35
2021/12/23 01:24:33;;;;;;;30.63;11.90;;;;;;;;;;5053543;28;20107;-35
2021/12/23 01:27:00;;;;;;;17.15;8.50;;;;;;;;;;5056060;28;20035;-35
2021/12/23 01:29:25;;;;;;;19.33;10.02;;;;;;;;;;5055888;28;20469;-35
2021/12/23 01:31:51;;;;;;;25.35;11.77;;;;;;;;;;5056138;28;20111;-36
2021/12/23 01:34:16;;;;;;;13.20;7.20;;;;;;;;;;5055613;28;20428;-35
2021/12/23 01:36:42;;;;;;;15.18;7.18;;;;;;;;;;5056057;28;20036;-36
2021/12/23 01:39:08;;;;;;;22.33;10.65;;;;;;;;;;5055117;28;20025;-35
2021/12/23 01:41:33;;;;;;;25.30;12.27;;;;;;;;;;5055384;28;20029;-35
2021/12/23 01:43:59;;;;;;;21.95;9.45;;;;;;;;;;5055003;28;20283;-35
2021/12/23 01:46:25;;;;;;;8.10;5.00;;;;;;;;;;5054982;28;20086;-35
2021/12/23 01:48:51;;;;;;;32.72;12.25;;;;;;;;;;5055345;28;20112;-35
2021/12/23 01:51:17;;;;;;;27.35;11.73;;;;;;;;;;5055215;28;20052;-35
2021/12/23 01:53:43;;;;;;;31.75;12.55;;;;;;;;;;5055271;28;20460;-35
2021/12/23 01:56:09;;;;;;;32.72;12.25;;;;;;;;;;5054247;28;20029;-35
2021/12/23 01:58:39;;;;;;;30.80;10.85;;;;;;;;;;5055115;28;20021;-35
2021/12/23 02:01:05;;;;;;;;;;;;;;;;;;5055335;28;20029;-36
2021/12/23 02:03:31;;;;;;;22.10;10.15;;;;;;;;;;5055179;28;19913;-35
2021/12/23 02:05:56;;;;;;;10.95;5.93;;;;;;;;;;5054128;28;20040;-35
2021/12/23 02:08:22;;;;;;;11.30;6.70;;;;;;;;;;5055137;28;20028;-35
2021/12/23 02:10:47;;;;;;;16.15;8.00;;;;;;;;;;5055353;28;20021;-35
2021/12/23 02:13:13;;;;;;;19.65;9.27;;;;;;;;;;5054872;28;20120;-35
2021/12/23 02:15:38;;;;;;;20.85;8.43;;;;;;;;;;5055026;28;20033;-35
2021/12/23 02:18:04;;;;;;;14.35;7.95;;;;;;;;;;5054830;28;20033;-35
2021/12/23 02:20:34;;;;;;;21.95;9.48;;;;;;;;;;5055227;28;20025;-35
2021/12/23 02:23:00;;;;;;;12.80;5.63;;;;;;;;;;5054737;28;20489;-35
2021/12/23 02:25:25;;;;;;;18.35;9.07;;;;;;;;;;5054591;28;20083;-35
2021/12/23 02:27:53;;;;;;;16.83;8.45;;;;;;;;;;5054937;28;20028;-35
2021/12/23 02:30:27;;;;;;;16.00;7.32;;;;;;;;;;5054608;28;20057;-35
2021/12/23 02:32:54;;;;;;;10.00;6.10;;;;;;;;;;5054517;28;20037;-35
2021/12/23 02:35:22;;;;;;;12.00;6.18;;;;;;;;;;5054017;28;20465;-35
2021/12/23 02:37:48;;;;;;;19.45;8.07;;;;;;;;;;5054870;28;20041;-35
2021/12/23 02:40:27;;;;;;;10.50;5.68;;;;;;;;;;5054203;28;20048;-36
2021/12/23 02:42:54;;;;;;;19.17;8.23;;;;;;;;;;5054473;28;20063;-35
2021/12/23 02:45:20;;;;;;;14.02;7.20;;;;;;;;;;5036862;28;20079;-35
2021/12/23 02:47:46;;;;;;;21.70;9.60;;;;;;;;;;5054473;28;20021;-35
2021/12/23 02:50:12;;;;;;;7.88;5.05;;;;;;;;;;5054113;28;20048;-35
2021/12/23 02:52:37;;;;;;;8.18;4.22;;;;;;;;;;5054360;28;20029;-35
2021/12/23 02:55:04;;;;;;;19.08;8.60;;;;;;;;;;5054754;28;20037;-35
2021/12/23 02:57:34;;;;;;;22.30;9.70;;;;;;;;;;5054501;28;20035;-35
2021/12/23 03:00:00;;;;;;;12.68;5.70;;;;;;;;;;5036399;28;20392;-35
2021/12/23 03:02:25;;;;;;;17.92;8.35;;;;;;;;;;5054178;28;20025;-36
2021/12/23 03:04:51;;;;;;;13.18;5.82;;;;;;;;;;5054561;28;20032;-35
2021/12/23 03:07:16;;;;;;;14.88;7.43;;;;;;;;;;5054540;28;20025;-35
2021/12/23 03:09:46;;;;;;;26.02;7.07;;;;;;;;;;5054445;28;20044;-35
2021/12/23 03:12:12;;;;;;;10.45;5.40;;;;;;;;;;5054190;28;20466;-35
2021/12/23 03:14:37;;;;;;;12.77;5.38;;;;;;;;;;5054060;28;20049;-35
2021/12/23 03:17:03;;;;;;;19.17;8.98;;;;;;;;;;5054543;28;20043;-35
2021/12/23 03:19:28;;;;;;;20.95;8.82;;;;;;;;;;5054243;28;20366;-35
2021/12/23 03:21:54;;;;;;;19.77;9.65;;;;;;;;;;5054023;28;20083;-35
2021/12/23 03:24:19;;;;;;;14.02;6.60;;;;;;;;;;5054059;28;20061;-35
2021/12/23 03:26:45;;;;;;;15.52;5.97;;;;;;;;;;5053988;28;20021;-35
2021/12/23 03:29:11;;;;;;;14.13;7.28;;;;;;;;;;5053927;28;20033;-35
2021/12/23 03:31:38;;;;;;;20.30;8.13;;;;;;;;;;5053853;28;20025;-35
2021/12/23 03:34:04;;;;;;;13.55;5.38;;;;;;;;;;5053870;28;20025;-35
2021/12/23 03:36:30;;;;;;;15.70;6.65;;;;;;;;;;5054151;28;20437;-35
2021/12/23 03:38:56;;;;;;;7.85;3.65;;;;;;;;;;5035832;28;20104;-35
2021/12/23 03:41:21;;;;;;;14.82;6.13;;;;;;;;;;5053356;28;20029;-35
2021/12/23 03:43:47;;;;;;;8.27;5.20;;;;;;;;;;5053577;28;20040;-36
2021/12/23 03:46:12;;;;;;;12.23;6.15;;;;;;;;;;5053389;28;20033;-36
2021/12/23 03:48:38;;;;;;;16.75;8.32;;;;;;;;;;5053404;28;20441;-35
2021/12/23 03:51:03;;;;;;;12.73;4.93;;;;;;;;;;5053507;28;20025;-36
2021/12/23 03:53:29;;;;;;;12.70;5.75;;;;;;;;;;5053752;28;20128;-35
2021/12/23 03:55:55;;;;;;;16.42;8.60;;;;;;;;;;5053333;28;20021;-36
2021/12/23 03:58:21;;;;;;;17.38;7.05;;;;;;;;;;5053685;28;20083;-35
2021/12/23 04:00:47;;;;;;;12.80;6.00;;;;;;;;;;5053222;28;20033;-35
2021/12/23 04:03:14;;;;;;;17.52;7.85;;;;;;;;;;5052907;28;20032;-35
2021/12/23 04:05:39;;;;;;;21.48;8.02;;;;;;;;;;5053185;28;20024;-36
2021/12/23 04:08:05;;;;;;;17.13;6.50;;;;;;;;;;5052822;28;20025;-35
2021/12/23 04:10:31;;;;;;;15.35;7.90;;;;;;;;;;5052913;28;20032;-36
2021/12/23 04:12:57;;;;;;;20.80;9.65;;;;;;;;;;5053079;28;20033;-36
2021/12/23 04:15:22;;;;;;;17.83;7.45;;;;;;;;;;5052829;28;20423;-35
2021/12/23 04:17:49;;;;;;;13.45;7.03;;;;;;;;;;5053118;28;20037;-36
2021/12/23 04:20:31;;;;;;;20.48;9.27;;;;;;;;;;5052504;28;20079;-36
2021/12/23 04:22:57;;;;;;;9.80;5.95;;;;;;;;;;5053140;28;20101;-36
2021/12/23 04:25:25;;;;;;;24.75;8.73;;;;;;;;;;5052978;28;20475;-36
2021/12/23 04:27:53;;;;;;;9.10;6.38;;;;;;;;;;5053124;28;20082;-36
2021/12/23 04:30:19;;;;;;;11.27;7.18;;;;;;;;;;5052782;28;20381;-36
2021/12/23 04:32:45;;;;;;;12.23;5.18;;;;;;;;;;5053041;28;20029;-36
2021/12/23 04:35:12;;;;;;;19.00;8.10;;;;;;;;;;5052723;28;20518;-36
2021/12/23 04:37:38;;;;;;;22.85;9.63;;;;;;;;;;5052872;28;20423;-36
2021/12/23 04:40:08;;;;;;;15.70;7.47;;;;;;;;;;5052505;28;20034;-36
2021/12/23 04:42:34;;;;;;;;;;;;;;;;;;5053389;28;20376;-36
2021/12/23 04:45:00;;;;;;;13.95;6.03;;;;;;;;;;5052821;28;19987;-35
2021/12/23 04:47:25;;;;;;;13.90;7.20;;;;;;;;;;5052858;28;20025;-36
2021/12/23 04:49:51;;;;;;;9.25;5.53;;;;;;;;;;5052721;28;20393;-36
2021/12/23 04:52:16;;;;;;;15.23;5.57;;;;;;;;;;5052808;28;20362;-35
2021/12/23 04:54:42;;;;;;;15.13;9.05;;;;;;;;;;5052428;28;20523;-35
2021/12/23 04:57:07;;;;;;;12.88;5.53;;;;;;;;;;5052716;28;20033;-35
2021/12/23 04:59:33;;;;;;;14.25;7.07;;;;;;;;;;5051228;28;20032;-35
2021/12/23 05:01:58;;;;;;;14.38;7.15;;;;;;;;;;5052520;28;20036;-35
2021/12/23 05:04:24;;;;;;;18.75;8.40;;;;;;;;;;5052346;28;20112;-35
2021/12/23 05:06:49;;;;;;;20.58;8.60;;;;;;;;;;5052254;28;20469;-35
2021/12/23 05:09:15;;;;;;;12.93;6.45;;;;;;;;;;5052511;28;20040;-35
2021/12/23 05:11:40;;;;;;;19.38;8.45;;;;;;;;;;5051904;28;20489;-35
2021/12/23 05:14:06;;;;;;;20.13;8.73;;;;;;;;;;5051688;28;20040;-35
2021/12/23 05:16:32;;;;;;;13.43;6.60;;;;;;;;;;5051995;28;20040;-36
2021/12/23 05:18:57;;;;;;;7.00;4.60;;;;;;;;;;5051884;28;20056;-35
2021/12/23 05:21:22;;;;;;;17.45;7.45;;;;;;;;;;5052223;28;20055;-35
2021/12/23 05:23:48;;;;;;;19.98;8.27;;;;;;;;;;5051948;28;20021;-36
2021/12/23 05:26:14;;;;;;;8.98;4.50;;;;;;;;;;5052354;28;20021;-35
2021/12/23 05:28:39;;;;;;;11.70;5.20;;;;;;;;;;5052362;28;20056;-35
2021/12/23 05:31:05;;;;;;;10.80;6.72;;;;;;;;;;5052306;28;20452;-35
2021/12/23 05:33:31;;;;;;;11.07;6.13;;;;;;;;;;5052284;28;20021;-36
2021/12/23 05:35:57;;;;;;;9.85;5.70;;;;;;;;;;5052300;28;20025;-35
2021/12/23 05:38:24;;;;;;;11.73;6.57;;;;;;;;;;5051936;28;20108;-36
2021/12/23 05:40:49;;;;;;;11.15;5.38;;;;;;;;;;5052040;28;20033;-35
2021/12/23 05:43:15;;;;;;;13.82;7.80;;;;;;;;;;5051882;28;20495;-35
2021/12/23 05:45:41;;;;;;;18.13;6.72;;;;;;;;;;5051739;28;20021;-36
2021/12/23 05:48:06;;;;;;;18.33;7.60;;;;;;;;;;5051770;28;20025;-35
2021/12/23 05:50:32;;;;;;;12.48;6.40;;;;;;;;;;5051831;28;20108;-35
2021/12/23 05:52:58;;;;;;;8.77;5.18;;;;;;;;;;5052072;28;20032;-35
2021/12/23 05:55:24;;;;;;;13.05;6.82;;;;;;;;;;5052065;28;20024;-36
2021/12/23 05:57:50;;;;;;;17.77;7.53;;;;;;;;;;5051732;28;20025;-35
2021/12/23 06:00:19;;;;;;;17.58;6.35;;;;;;;;;;5052025;28;20060;-36
2021/12/23 06:02:46;;;;;;;10.83;5.70;;;;;;;;;;5051748;28;20489;-36
2021/12/23 06:05:12;;;;;;;3.95;2.25;;;;;;;;;;5052061;28;20475;-36
2021/12/23 06:07:38;;;;;;;8.50;4.90;;;;;;;;;;5051983;28;20064;-36
2021/12/23 06:10:04;;;;;;;15.63;6.75;;;;;;;;;;5051620;28;20025;-36
2021/12/23 06:12:29;;;;;;;14.70;6.93;;;;;;;;;;5055499;28;20033;-36
2021/12/23 06:14:55;;;;;;;12.95;6.47;;;;;;;;;;5055312;28;20049;-36
2021/12/23 06:17:20;;;;;;;21.33;6.03;;;;;;;;;;5055682;28;20032;-36
2021/12/23 06:19:46;;;;;;;9.00;4.88;;;;;;;;;;5055490;28;20497;-36
2021/12/23 06:22:13;;;;;;;11.93;3.58;;;;;;;;;;5055603;28;20056;-36
2021/12/23 06:24:43;;;;;;;7.45;4.18;;;;;;;;;;5055220;28;20561;-36
2021/12/23 06:27:08;;;;;;;5.93;4.35;;;;;;;;;;5055575;28;20381;-36
2021/12/23 06:29:34;;;;;;;12.82;5.75;;;;;;;;;;5055457;28;20032;-35
2021/12/23 06:31:59;;;;;;;9.95;5.38;;;;;;;;;;5055058;28;20523;-36
2021/12/23 06:34:25;;;;;;;6.00;3.78;;;;;;;;;;5055287;28;20025;-36
2021/12/23 06:36:50;;;;;;;10.35;4.85;;;;;;;;;;5054951;28;20504;-36
2021/12/23 06:39:16;;;;;;;8.10;4.95;;;;;;;;;;5055056;28;20070;-36
2021/12/23 06:41:41;;;;;;;5.63;3.90;;;;;;;;;;5054839;28;20477;-36
2021/12/23 06:44:07;;;;;;;6.20;4.65;;;;;;;;;;5055086;28;20032;-36
2021/12/23 06:46:33;;;;;;;10.57;5.80;;;;;;;;;;5055068;28;20025;-36
2021/12/23 06:48:58;;;;;;;5.20;3.88;;;;;;;;;;5054731;28;20610;-36
2021/12/23 06:51:29;;;;;;;9.57;5.28;;;;;;;;;;5055018;28;20031;-36
2021/12/23 06:53:57;;;;;;;12.02;5.95;;;;;;;;;;5054682;28;20036;-36
2021/12/23 06:56:24;;;;;;;7.15;4.68;;;;;;;;;;5054875;28;20029;-36
2021/12/23 06:58:50;;;;;;;14.27;6.82;;;;;;;;;;5054877;28;20033;-36
2021/12/23 07:01:18;;;;;;;13.52;6.97;;;;;;;;;;5054726;28;20029;-36
2021/12/23 07:04:32;;;;;;;7.40;4.43;;;;;;;;;;5036565;28;20029;-36
2021/12/23 07:06:35;;;;;;;14.38;6.78;;;;;;;;;;5048710;28;20033;-37
2021/12/23 07:09:04;;;;;;;12.13;5.70;;;;;;;;;;5054354;28;20115;-36
2021/12/23 07:11:31;;;;;;;6.90;3.97;;;;;;;;;;5054522;28;20412;-36
2021/12/23 07:13:56;;;;;;;9.15;5.00;;;;;;;;;;5053902;28;20052;-36
2021/12/23 07:16:21;;;;;;;6.07;3.75;;;;;;;;;;5054169;28;20025;-36
2021/12/23 07:18:47;;;;;;;9.07;4.43;;;;;;;;;;5054366;28;20107;-36
2021/12/23 07:21:13;;;;;;;8.70;4.93;;;;;;;;;;5053177;28;20071;-36
2021/12/23 07:23:38;;;;;;;6.53;4.30;;;;;;;;;;5053955;28;20116;-36
2021/12/23 07:26:04;;;;;;;11.93;5.70;;;;;;;;;;5054297;28;20025;-36
2021/12/23 07:28:29;;;;;;;9.70;4.90;;;;;;;;;;5054015;28;20527;-36
2021/12/23 07:30:55;;;;;;;7.95;3.83;;;;;;;;;;5053941;28;20032;-34
2021/12/23 07:33:21;;;;;;;7.43;3.80;;;;;;;;;;5053760;28;20025;-35
2021/12/23 07:35:48;;;;;;;10.30;4.80;;;;;;;;;;5054036;28;20025;-35
2021/12/23 07:38:14;;;;;;;4.43;3.25;;;;;;;;;;5054001;28;20366;-34
2021/12/23 07:40:40;;;;;;;9.65;4.28;;;;;;;;;;5053781;28;20025;-35
2021/12/23 07:43:20;;;;;;;6.25;3.63;;;;;;;;;;5053936;28;20048;-35
2021/12/23 07:45:45;;;;;;;6.75;4.25;;;;;;;;;;5053932;28;20028;-34
2021/12/23 07:48:11;;;;;;;6.95;3.80;;;;;;;;;;5053889;28;20032;-35
2021/12/23 07:50:37;;;;;;;11.63;4.97;;;;;;;;;;5053820;28;20536;-35
2021/12/23 07:53:02;;;;;;;5.38;3.38;;;;;;;;;;5053471;28;20543;-35
2021/12/23 07:55:28;;;;;;;11.20;5.22;;;;;;;;;;5053694;28;20036;-35
2021/12/23 07:57:53;;;;;;;7.35;4.05;;;;;;;;;;5053732;28;20024;-35
2021/12/23 08:00:20;;;;;;;6.85;4.30;;;;;;;;;;5053211;28;20477;-35
2021/12/23 08:02:45;;;;;;;8.70;4.25;;;;;;;;;;5053602;28;20032;-37
2021/12/23 08:05:11;;;;;;;12.13;5.88;;;;;;;;;;5053507;28;20021;-35
2021/12/23 08:07:36;;;;;;;10.50;4.43;;;;;;;;;;5053218;28;20490;-35
2021/12/23 08:10:03;;;;;;;9.68;5.18;;;;;;;;;;5053478;28;20025;-35
2021/12/23 08:12:28;;;;;;;4.18;2.92;;;;;;;;;;5053439;28;20389;-37
2021/12/23 08:14:54;;;;;;;6.68;4.00;;;;;;;;;;5052976;28;20049;-35
2021/12/23 08:17:20;;;;;;;6.47;3.78;;;;;;;;;;5035553;28;20021;-35
2021/12/23 08:19:45;;;;;;;8.50;4.55;;;;;;;;;;5053216;28;20032;-35
2021/12/23 08:22:11;;;;;;;6.38;4.40;;;;;;;;;;5053194;28;20024;-35
2021/12/23 08:24:36;;;;;;;5.53;3.50;;;;;;;;;;5052890;28;20033;-35
2021/12/23 08:27:04;;;;;;;9.98;5.05;;;;;;;;;;5052982;28;20025;-35
2021/12/23 08:29:30;;;;;;;7.00;4.15;;;;;;;;;;5052738;28;20033;-36
2021/12/23 08:31:55;;;;;;;6.80;4.40;;;;;;;;;;5052892;28;20374;-35
2021/12/23 08:34:22;;;;;;;6.95;3.88;;;;;;;;;;5052243;28;20354;-36
2021/12/23 08:36:48;;;;;;;7.65;4.40;;;;;;;;;;5052555;28;20028;-36
2021/12/23 08:39:15;;;;;;;7.75;4.85;;;;;;;;;;5052400;28;20477;-35
2021/12/23 08:41:41;;;;;;;10.65;3.83;;;;;;;;;;5052249;28;20491;-35
2021/12/23 08:44:07;;;;;;;7.32;4.10;;;;;;;;;;5052526;28;20108;-35
2021/12/23 08:46:32;;;;;;;7.13;4.28;;;;;;;;;;5052322;28;20481;-35
2021/12/23 08:48:58;;;;;;;7.18;4.07;;;;;;;;;;5053078;28;20029;-37
2021/12/23 08:51:24;;;;;;;10.98;3.88;;;;;;;;;;5052761;28;20473;-35
2021/12/23 08:53:50;;;;;;;8.50;3.97;;;;;;;;;;5052593;28;20516;-35
2021/12/23 08:56:16;;;;;;;8.75;4.70;;;;;;;;;;5052408;28;20481;-35
2021/12/23 08:58:42;;;;;;;8.13;4.57;;;;;;;;;;5052380;28;20029;-35
2021/12/23 09:01:08;;;;;;;6.68;3.53;;;;;;;;;;5052314;28;20043;-36
2021/12/23 09:03:34;;;;;;;7.20;3.83;;;;;;;;;;5052631;28;20025;-36
2021/12/23 09:06:01;;;;;;;10.57;4.95;;;;;;;;;;5052406;28;20373;-36
2021/12/23 09:08:27;;;;;;;8.57;3.75;;;;;;;;;;5052433;28;20021;-36
2021/12/23 09:10:57;;;;;;;5.47;3.72;;;;;;;;;;5052559;28;20376;-35
2021/12/23 09:13:24;;;;;;;;;;;;;;;;;;5052440;28;20049;-36
2021/12/23 09:15:51;;;;;;;6.85;4.30;;;;;;;;;;5051923;28;19923;-35
2021/12/23 09:18:21;;;;;;;6.32;3.78;;;;;;;;;;5051932;28;20067;-36
2021/12/23 09:20:48;;;;;;;6.00;3.22;;;;;;;;;;5052182;28;20037;-36
2021/12/23 09:23:14;;;;;;;12.20;3.78;;;;;;;;;;5052115;28;20036;-35
2021/12/23 09:25:41;;;;;;;7.82;4.15;;;;;;;;;;5052107;28;20150;-35
2021/12/23 09:33:21;;;;;;;6.40;3.92;;;;;;;;;;5052432;28;20040;-35
2021/12/23 09:35:47;;;;;;;8.75;4.32;;;;;;;;;;5052110;28;20025;-35
2021/12/23 09:38:13;;;;;;;7.32;3.78;;;;;;;;;;5051735;28;20439;-35
2021/12/23 09:40:40;;;;;;;6.38;3.72;;;;;;;;;;5051257;28;20115;-36
2021/12/23 09:43:09;;;;;;;9.60;4.97;;;;;;;;;;5050298;28;20493;-36
2021/12/23 09:45:36;;;;;;;6.85;4.07;;;;;;;;;;5052708;28;20074;-36
2021/12/23 09:48:02;;;;;;;21.70;4.15;;;;;;;;;;5054251;28;20115;-37
2021/12/23 09:50:31;;;;;;;6.95;3.63;;;;;;;;;;5054437;28;20100;-36
2021/12/23 09:53:00;;;;;;;4.82;3.50;;;;;;;;;;5054434;28;20056;-36
2021/12/23 09:55:26;;;;;;;7.65;4.30;;;;;;;;;;5036573;28;20029;-35
2021/12/23 09:57:54;;;;;;;7.70;4.30;;;;;;;;;;5054522;28;20035;-36
2021/12/23 10:00:23;;;;;;;8.93;5.93;;;;;;;;;;5053673;28;20468;-36
2021/12/23 10:02:50;;;;;;;4.72;3.33;;;;;;;;;;5054331;28;20037;-36
2021/12/23 10:05:19;;;;;;;11.77;4.25;;;;;;;;;;5055451;28;20373;-35
2021/12/23 10:07:46;;;;;;;9.70;4.80;;;;;;;;;;5055447;28;20453;-36
2021/12/23 10:10:19;;;;;;;8.35;3.97;;;;;;;;;;5055555;28;20025;-35
2021/12/23 10:31:52;;;;;;;11.02;5.78;;;;;;;;;;5055082;28;20021;-35
2021/12/23 10:37:19;;;;;;;6.23;4.33;;;;;;;;;;5035405;28;20021;-35
2021/12/23 10:39:49;;;;;;;5.40;4.47;;;;;;;;;;5055030;28;20293;-35
2021/12/23 10:42:21;;;;;;;7.20;4.70;;;;;;;;;;5055214;28;20025;-36
2021/12/23 10:44:58;;;;;;;14.40;5.55;;;;;;;;;;5055178;28;20052;-35
2021/12/23 10:47:44;;;;;;;11.15;7.18;;;;;;;;;;5055269;28;20377;-35
2021/12/23 10:50:36;;;;;;;6.55;3.78;;;;;;;;;;5054953;28;20124;-35
2021/12/23 10:53:10;;;;;;;8.38;4.22;;;;;;;;;;5054715;28;20477;-35
2021/12/23 10:58:21;;;;;;;10.80;5.05;;;;;;;;;;5054953;28;20032;-36
2021/12/23 11:00:53;;;;;;;5.75;3.67;;;;;;;;;;5054920;28;20380;-36
2021/12/23 11:03:51;;;;;;;9.02;4.68;;;;;;;;;;5054570;28;20025;-36
2021/12/23 11:06:27;;;;;;;8.68;5.32;;;;;;;;;;5053236;28;20147;-37
2021/12/23 11:37:09;;;;;;;6.45;3.67;;;;;;;;;;4971436;28;20109;-37
2021/12/23 11:42:26;;;;;;;5.75;3.67;;;;;;;;;;5019449;28;20144;-35
2021/12/23 11:44:52;;;;;;;8.73;5.40;;;;;;;;;;5052960;28;20100;-36
2021/12/23 11:47:18;;;;;;;12.75;6.80;;;;;;;;;;5052692;28;20239;-36
2021/12/23 11:49:46;;;;;;;11.27;6.00;;;;;;;;;;5053395;28;20531;-36
2021/12/23 11:52:13;;;;;;;9.43;5.32;;;;;;;;;;5052161;28;20558;-35
2021/12/23 11:54:42;;;;;;;9.57;5.50;;;;;;;;;;5052223;28;20469;-36
2021/12/23 11:57:12;;;;;;;17.17;7.63;;;;;;;;;;5052056;28;20076;-36
2021/12/23 11:59:40;;;;;;;8.40;4.32;;;;;;;;;;5052003;28;20043;-36
2021/12/23 12:02:17;;;;;;;11.05;5.88;;;;;;;;;;5052406;28;20033;-36
2021/12/23 12:04:44;;;;;;;15.35;7.75;;;;;;;;;;5052151;28;20056;-36
2021/12/23 12:07:28;;;;;;;12.07;6.38;;;;;;;;;;5051715;28;20033;-36
2021/12/23 12:10:08;;;;;;;14.00;7.70;;;;;;;;;;5051802;28;20021;-36
2021/12/23 12:12:35;;;;;;;16.63;8.00;;;;;;;;;;5052291;28;20044;-36
2021/12/23 12:15:03;;;;;;;10.70;6.43;;;;;;;;;;5050205;28;20053;-36
2021/12/23 12:17:33;;;;;;;17.15;7.70;;;;;;;;;;5051921;28;20025;-35
2021/12/23 12:20:51;;;;;;;14.70;6.20;;;;;;;;;;5051524;28;20058;-35
2021/12/23 12:23:36;;;;;;;10.80;5.78;;;;;;;;;;5051545;28;20044;-35
2021/12/23 12:26:04;;;;;;;11.27;6.93;;;;;;;;;;5051390;28;20052;-36
2021/12/23 12:28:41;;;;;;;11.52;6.40;;;;;;;;;;5051430;28;20049;-36
2021/12/23 12:31:13;;;;;;;11.43;7.70;;;;;;;;;;5051562;28;20037;-36
2021/12/23 12:33:41;;;;;;;15.43;7.15;;;;;;;;;;5051501;28;20029;-35
2021/12/23 12:36:16;;;;;;;18.67;9.10;;;;;;;;;;5051482;28;20078;-36
2021/12/23 12:39:13;;;;;;;15.73;8.15;;;;;;;;;;5051607;28;20036;-36
2021/12/23 12:41:39;;;;;;;7.05;4.25;;;;;;;;;;5051192;28;20036;-36
2021/12/23 12:44:22;;;;;;;11.00;5.75;;;;;;;;;;5051577;28;20468;-36
2021/12/23 12:47:11;;;;;;;13.48;6.90;;;;;;;;;;5051117;28;20032;-36
2021/12/23 12:49:44;;;;;;;15.23;8.07;;;;;;;;;;5051421;28;20052;-36
2021/12/23 12:52:32;;;;;;;9.90;6.13;;;;;;;;;;5051379;28;20094;-35
2021/12/23 12:54:59;;;;;;;16.13;7.50;;;;;;;;;;5051325;28;20037;-35
2021/12/23 12:57:36;;;;;;;14.27;6.28;;;;;;;;;;5051197;28;20376;-35
2021/12/23 13:00:27;;;;;;;15.70;8.02;;;;;;;;;;5051176;28;20128;-36
2021/12/23 13:02:57;;;;;;;13.48;7.43;;;;;;;;;;5050888;28;20060;-36
2021/12/23 13:05:30;;;;;;;14.05;7.13;;;;;;;;;;5049757;28;20380;-35
2021/12/23 13:07:57;;;;;;;12.73;7.22;;;;;;;;;;5050794;28;20090;-35
2021/12/23 13:10:32;;;;;;;8.57;4.97;;;;;;;;;;5051024;28;20040;-35
2021/12/23 13:13:04;;;;;;;12.23;6.55;;;;;;;;;;5050727;28;20036;-35
2021/12/23 13:15:36;;;;;;;7.38;5.30;;;;;;;;;;5050712;28;20044;-36
2021/12/23 13:18:18;;;;;;;10.35;6.60;;;;;;;;;;5051018;28;20377;-35
2021/12/23 13:20:45;;;;;;;14.18;6.75;;;;;;;;;;5049740;28;20068;-36
2021/12/23 13:23:12;;;;;;;16.73;7.47;;;;;;;;;;5050899;28;20032;-36
2021/12/23 13:25:47;;;;;;;12.73;6.97;;;;;;;;;;5050828;28;20025;-36
2021/12/23 13:28:30;;;;;;;18.83;7.88;;;;;;;;;;5050605;28;20025;-35
2021/12/23 13:30:57;;;;;;;18.67;8.40;;;;;;;;;;5050853;28;20439;-35
2021/12/23 13:33:24;;;;;;;9.90;6.15;;;;;;;;;;5050748;28;20025;-36
2021/12/23 13:35:49;;;;;;;14.00;7.80;;;;;;;;;;5050409;28;20164;-36
2021/12/23 13:38:38;;;;;;;18.25;8.90;;;;;;;;;;5050064;28;20037;-36
2021/12/23 13:41:31;;;;;;;15.52;8.38;;;;;;;;;;5050611;28;20056;-35
2021/12/23 13:44:24;;;;;;;11.20;5.97;;;;;;;;;;5003169;28;20120;-36
2021/12/23 13:47:09;;;;;;;12.55;8.18;;;;;;;;;;5041869;28;20073;-36
2021/12/23 13:49:37;;;;;;;15.15;7.60;;;;;;;;;;5050745;28;20037;-36
2021/12/23 13:52:32;;;;;;;18.67;9.93;;;;;;;;;;5050591;28;20067;-35
2021/12/23 13:54:59;;;;;;;17.67;9.68;;;;;;;;;;5050610;28;20035;-36
2021/12/23 13:57:27;;;;;;;28.95;8.38;;;;;;;;;;5050608;28;20442;-35
2021/12/23 13:59:53;;;;;;;17.38;8.82;;;;;;;;;;5050578;28;20124;-36
2021/12/23 14:02:29;;;;;;;20.17;9.10;;;;;;;;;;5050406;28;20045;-35
2021/12/23 14:05:03;;;;;;;19.98;10.52;;;;;;;;;;5050524;28;20033;-35
2021/12/23 14:07:44;;;;;;;19.67;9.60;;;;;;;;;;5050374;28;20102;-36
2021/12/23 14:10:11;;;;;;;19.48;9.88;;;;;;;;;;5050169;28;20111;-36
2021/12/23 14:12:56;;;;;;;18.50;10.65;;;;;;;;;;5050410;28;20373;-36
2021/12/23 14:15:24;;;;;;;23.30;10.25;;;;;;;;;;5049985;28;20486;-35
2021/12/23 14:17:59;;;;;;;21.35;11.35;;;;;;;;;;5050236;28;20397;-36
2021/12/23 14:23:19;;;;;;;17.17;9.65;;;;;;;;;;5050098;28;20401;-37
2021/12/23 14:25:59;;;;;;;22.83;11.63;;;;;;;;;;5050259;28;20032;-35
2021/12/23 14:28:44;;;;;;;28.13;13.82;;;;;;;;;;5050296;28;20388;-36
2021/12/23 14:31:22;;;;;;;19.75;10.38;;;;;;;;;;5050967;28;20174;-36
2021/12/23 14:34:09;;;;;;;20.77;10.80;;;;;;;;;;5052068;28;20381;-35
2021/12/23 14:36:37;;;;;;;19.42;9.95;;;;;;;;;;5053668;28;20405;-36
2021/12/23 14:39:05;;;;;;;17.90;8.15;;;;;;;;;;5053308;28;20037;-37
2021/12/23 14:41:37;;;;;;;24.50;11.10;;;;;;;;;;5053067;28;20029;-36
2021/12/23 14:44:14;;;;;;;23.08;11.52;;;;;;;;;;5053394;28;20071;-36
2021/12/23 14:46:43;;;;;;;29.05;14.68;;;;;;;;;;5053240;28;20481;-35
2021/12/23 14:49:28;;;;;;;25.90;13.15;;;;;;;;;;5053421;28;20487;-36
2021/12/23 14:51:54;;;;;;;28.67;13.98;;;;;;;;;;5053104;28;20558;-36
2021/12/23 14:54:22;;;;;;;23.65;12.38;;;;;;;;;;5053149;28;20163;-36
2021/12/23 14:57:04;;;;;;;22.10;9.65;;;;;;;;;;5053057;28;20025;-36
2021/12/23 14:59:29;;;;;;;26.63;15.15;;;;;;;;;;5052914;28;20037;-35
2021/12/23 15:02:07;;;;;;;32.72;15.50;;;;;;;;;;5053187;28;20028;-36
2021/12/23 15:04:33;;;;;;;35.35;16.95;;;;;;;;;;5053265;28;20036;-35
2021/12/23 15:07:06;;;;;;;12.52;7.22;;;;;;;;;;5052997;28;20244;-35
2021/12/23 15:09:40;;;;;;;20.77;10.98;;;;;;;;;;5052666;28;20040;-35
2021/12/23 15:12:17;;;;;;;26.27;13.18;;;;;;;;;;5052989;28;20513;-35
2021/12/23 15:14:54;;;;;;;28.27;13.07;;;;;;;;;;5034529;28;20056;-36
2021/12/23 15:17:30;;;;;;;32.40;15.63;;;;;;;;;;5052698;28;20489;-35
2021/12/23 15:19:58;;;;;;;30.10;16.42;;;;;;;;;;5052843;28;20053;-36
2021/12/23 15:22:36;;;;;;;33.97;14.45;;;;;;;;;;5034791;28;20033;-36
2021/12/23 15:25:05;;;;;;;26.38;14.02;;;;;;;;;;5052800;28;20068;-35
2021/12/23 15:27:32;;;;;;;28.15;13.88;;;;;;;;;;5052800;28;20110;-35
2021/12/23 15:30:02;;;;;;;39.65;18.02;;;;;;;;;;5052675;28;20107;-36
2021/12/23 15:32:30;;;;;;;34.40;15.40;;;;;;;;;;5052768;28;20036;-35
2021/12/23 15:35:02;;;;;;;32.80;14.88;;;;;;;;;;5052451;28;20122;-35
2021/12/23 15:37:31;;;;;;;29.55;14.48;;;;;;;;;;5052656;28;20033;-35
2021/12/23 15:39:58;;;;;;;25.25;14.50;;;;;;;;;;5052446;28;20060;-36
2021/12/23 15:42:24;;;;;;;41.10;19.98;;;;;;;;;;5051144;28;20036;-36
2021/12/23 15:44:52;;;;;;;33.88;17.38;;;;;;;;;;5051992;28;20554;-35
2021/12/23 15:47:21;;;;;;;30.90;15.75;;;;;;;;;;5052012;28;20343;-36
2021/12/23 15:49:48;;;;;;;28.25;13.25;;;;;;;;;;5051363;28;20094;-36
2021/12/23 15:52:15;;;;;;;28.95;15.65;;;;;;;;;;5051235;28;20028;-35